sensor_id;sensor_type;location;lat;lon;timestamp;pressure;altitude;pressure_sealevel;temperature;humidity
39491;BME280;25175;50.140;18.990;2023-09-08T00:01:21;99262.38;;;16.52;60.94
39491;BME280;25175;50.140;18.990;2023-09-08T00:04:27;99264.13;;;16.58;60.95
39491;BME280;25175;50.140;18.990;2023-09-08T00:07:34;99265.59;;;16.54;61.21
39491;BME280;25175;50.140;18.990;2023-09-08T00:10:39;99266.84;;;16.52;61.17
39491;BME280;25175;50.140;18.990;2023-09-08T00:13:44;99260.75;;;16.51;61.24
39491;BME280;25175;50.140;18.990;2023-09-08T00:17:05;99257.31;;;16.51;61.27
39491;BME280;25175;50.140;18.990;2023-09-08T00:20:10;99232.47;;;16.34;61.29
39491;BME280;25175;50.140;18.990;2023-09-08T00:23:20;99257.53;;;16.49;61.38
39491;BME280;25175;50.140;18.990;2023-09-08T00:26:25;99254.88;;;16.49;61.45
39491;BME280;25175;50.140;18.990;2023-09-08T00:29:30;99262.44;;;16.46;61.79
39491;BME280;25175;50.140;18.990;2023-09-08T00:32:34;99242.50;;;16.43;61.57
39491;BME280;25175;50.140;18.990;2023-09-08T00:35:51;99246.97;;;16.43;61.81
39491;BME280;25175;50.140;18.990;2023-09-08T00:39:01;99245.38;;;16.42;61.54
39491;BME280;25175;50.140;18.990;2023-09-08T00:42:06;99244.59;;;16.41;61.68
39491;BME280;25175;50.140;18.990;2023-09-08T00:45:11;99237.91;;;16.39;61.66
39491;BME280;25175;50.140;18.990;2023-09-08T00:48:16;99236.03;;;16.39;61.79
39491;BME280;25175;50.140;18.990;2023-09-08T00:51:22;99243.75;;;16.41;61.55
39491;BME280;25175;50.140;18.990;2023-09-08T00:54:30;99240.28;;;16.40;61.38
39491;BME280;25175;50.140;18.990;2023-09-08T00:57:35;99243.19;;;16.39;61.27
39491;BME280;25175;50.140;18.990;2023-09-08T01:00:40;99224.25;;;16.24;61.11
39491;BME280;25175;50.140;18.990;2023-09-08T01:03:45;99245.56;;;16.29;61.05
39491;BME280;25175;50.140;18.990;2023-09-08T01:06:51;99234.91;;;16.06;60.96
39491;BME280;25175;50.140;18.990;2023-09-08T01:10:00;99243.00;;;16.22;60.81
39491;BME280;25175;50.140;18.990;2023-09-08T01:13:09;99232.63;;;16.21;61.08
39491;BME280;25175;50.140;18.990;2023-09-08T01:16:14;99236.09;;;16.21;60.86
39491;BME280;25175;50.140;18.990;2023-09-08T01:19:26;99245.09;;;16.20;60.74
39491;BME280;25175;50.140;18.990;2023-09-08T01:22:50;99167.59;;;15.66;60.73
39491;BME280;25175;50.140;18.990;2023-09-08T01:26:20;99246.44;;;16.11;60.46
39491;BME280;25175;50.140;18.990;2023-09-08T01:29:30;99243.88;;;16.05;60.69
39491;BME280;25175;50.140;18.990;2023-09-08T01:32:36;99252.28;;;16.02;60.84
39491;BME280;25175;50.140;18.990;2023-09-08T01:35:41;99252.28;;;16.02;60.58
39491;BME280;25175;50.140;18.990;2023-09-08T01:38:52;99251.34;;;15.97;60.77
39491;BME280;25175;50.140;18.990;2023-09-08T01:41:59;99255.00;;;15.95;60.97
39491;BME280;25175;50.140;18.990;2023-09-08T01:45:06;99247.72;;;15.91;60.93
39491;BME280;25175;50.140;18.990;2023-09-08T01:48:11;99253.69;;;15.87;60.71
39491;BME280;25175;50.140;18.990;2023-09-08T01:51:17;99249.88;;;15.83;60.74
39491;BME280;25175;50.140;18.990;2023-09-08T01:54:21;99254.00;;;15.78;60.67
39491;BME280;25175;50.140;18.990;2023-09-08T01:57:29;99251.44;;;15.72;61.09
39491;BME280;25175;50.140;18.990;2023-09-08T02:00:34;99249.22;;;15.69;61.14
39491;BME280;25175;50.140;18.990;2023-09-08T02:03:39;99240.53;;;15.62;60.90
39491;BME280;25175;50.140;18.990;2023-09-08T02:06:44;99254.19;;;15.59;61.36
39491;BME280;25175;50.140;18.990;2023-09-08T02:09:49;99246.56;;;15.51;61.55
39491;BME280;25175;50.140;18.990;2023-09-08T02:12:57;99246.06;;;15.43;61.87
39491;BME280;25175;50.140;18.990;2023-09-08T02:16:02;99251.00;;;15.39;62.07
39491;BME280;25175;50.140;18.990;2023-09-08T02:19:07;99242.66;;;15.35;62.51
39491;BME280;25175;50.140;18.990;2023-09-08T02:22:13;99249.84;;;15.28;62.99
39491;BME280;25175;50.140;18.990;2023-09-08T02:25:17;99257.28;;;15.20;63.12
39491;BME280;25175;50.140;18.990;2023-09-08T02:28:41;99258.81;;;15.10;62.96
39491;BME280;25175;50.140;18.990;2023-09-08T02:31:50;99257.91;;;14.98;63.21
39491;BME280;25175;50.140;18.990;2023-09-08T02:35:20;99258.16;;;14.90;63.30
39491;BME280;25175;50.140;18.990;2023-09-08T02:38:41;99247.25;;;14.79;63.27
39491;BME280;25175;50.140;18.990;2023-09-08T02:41:56;99233.06;;;14.74;62.94
39491;BME280;25175;50.140;18.990;2023-09-08T02:45:06;99245.41;;;14.87;62.61
39491;BME280;25175;50.140;18.990;2023-09-08T02:48:12;99251.28;;;14.89;62.52
39491;BME280;25175;50.140;18.990;2023-09-08T02:51:18;99248.78;;;14.94;62.06
39491;BME280;25175;50.140;18.990;2023-09-08T02:54:23;99250.41;;;14.95;62.03
39491;BME280;25175;50.140;18.990;2023-09-08T02:57:27;99243.88;;;14.97;61.51
39491;BME280;25175;50.140;18.990;2023-09-08T03:00:36;99243.06;;;14.97;61.51
39491;BME280;25175;50.140;18.990;2023-09-08T03:04:13;99240.19;;;14.98;61.13
39491;BME280;25175;50.140;18.990;2023-09-08T03:07:19;99239.41;;;14.98;60.98
39491;BME280;25175;50.140;18.990;2023-09-08T03:10:37;99234.34;;;14.96;60.80
39491;BME280;25175;50.140;18.990;2023-09-08T03:14:07;99230.88;;;14.96;60.90
39491;BME280;25175;50.140;18.990;2023-09-08T03:17:33;99217.06;;;14.94;60.61
39491;BME280;25175;50.140;18.990;2023-09-08T03:20:53;99215.47;;;14.93;60.71
39491;BME280;25175;50.140;18.990;2023-09-08T03:23:58;99217.94;;;14.88;60.67
39491;BME280;25175;50.140;18.990;2023-09-08T03:27:13;99221.22;;;14.83;61.11
39491;BME280;25175;50.140;18.990;2023-09-08T03:30:17;99225.06;;;14.80;61.18
39491;BME280;25175;50.140;18.990;2023-09-08T03:33:25;99215.38;;;14.74;61.96
39491;BME280;25175;50.140;18.990;2023-09-08T03:36:31;99187.09;;;14.57;61.57
39491;BME280;25175;50.140;18.990;2023-09-08T03:39:38;99217.84;;;14.69;61.61
39491;BME280;25175;50.140;18.990;2023-09-08T03:42:50;99213.59;;;14.68;61.29
39491;BME280;25175;50.140;18.990;2023-09-08T03:45:56;99214.63;;;14.68;61.28
39491;BME280;25175;50.140;18.990;2023-09-08T03:49:04;99208.41;;;14.62;61.41
39491;BME280;25175;50.140;18.990;2023-09-08T03:52:10;99214.09;;;14.59;61.71
39491;BME280;25175;50.140;18.990;2023-09-08T03:55:16;98896.50;;;12.56;61.81
39491;BME280;25175;50.140;18.990;2023-09-08T03:58:21;99208.28;;;14.51;61.90
39491;BME280;25175;50.140;18.990;2023-09-08T04:01:34;99205.84;;;14.49;61.97
39491;BME280;25175;50.140;18.990;2023-09-08T04:04:42;99205.63;;;14.51;61.68
39491;BME280;25175;50.140;18.990;2023-09-08T04:07:48;99202.81;;;14.46;61.49
39491;BME280;25175;50.140;18.990;2023-09-08T04:10:53;99221.06;;;14.54;61.31
39491;BME280;25175;50.140;18.990;2023-09-08T04:13:58;99210.50;;;14.54;61.17
39491;BME280;25175;50.140;18.990;2023-09-08T04:17:19;99209.69;;;14.53;60.97
39491;BME280;25175;50.140;18.990;2023-09-08T04:20:26;99221.47;;;14.51;61.24
39491;BME280;25175;50.140;18.990;2023-09-08T04:23:32;99215.63;;;14.49;61.89
39491;BME280;25175;50.140;18.990;2023-09-08T04:26:37;99213.06;;;14.36;62.40
39491;BME280;25175;50.140;18.990;2023-09-08T04:29:42;99230.09;;;14.40;62.91
39491;BME280;25175;50.140;18.990;2023-09-08T04:32:47;99219.81;;;14.32;63.46
39491;BME280;25175;50.140;18.990;2023-09-08T04:35:55;99220.97;;;14.36;63.60
39491;BME280;25175;50.140;18.990;2023-09-08T04:38:59;99221.63;;;14.31;64.28
39491;BME280;25175;50.140;18.990;2023-09-08T04:42:05;99222.66;;;14.30;64.15
39491;BME280;25175;50.140;18.990;2023-09-08T04:45:23;99230.94;;;14.34;64.13
39491;BME280;25175;50.140;18.990;2023-09-08T04:48:56;99226.25;;;14.36;64.11
39491;BME280;25175;50.140;18.990;2023-09-08T04:52:04;99238.00;;;14.40;64.34
39491;BME280;25175;50.140;18.990;2023-09-08T04:55:11;99218.53;;;14.34;64.27
39491;BME280;25175;50.140;18.990;2023-09-08T04:58:16;99225.47;;;14.35;64.58
39491;BME280;25175;50.140;18.990;2023-09-08T05:01:42;99224.44;;;14.36;65.23
39491;BME280;25175;50.140;18.990;2023-09-08T05:04:46;99229.22;;;14.46;65.54
39491;BME280;25175;50.140;18.990;2023-09-08T05:07:55;99218.50;;;14.41;66.37
39491;BME280;25175;50.140;18.990;2023-09-08T05:11:03;99229.97;;;14.52;66.46
39491;BME280;25175;50.140;18.990;2023-09-08T05:14:09;99224.88;;;14.58;66.76
39491;BME280;25175;50.140;18.990;2023-09-08T05:17:14;99232.16;;;14.62;66.97
39491;BME280;25175;50.140;18.990;2023-09-08T05:20:20;99227.25;;;14.66;67.10
39491;BME280;25175;50.140;18.990;2023-09-08T05:23:27;99235.56;;;14.69;68.13
39491;BME280;25175;50.140;18.990;2023-09-08T05:26:34;99229.03;;;14.72;68.47
39491;BME280;25175;50.140;18.990;2023-09-08T05:29:40;99220.28;;;14.71;68.73
39491;BME280;25175;50.140;18.990;2023-09-08T05:32:45;99236.88;;;14.85;68.98
39491;BME280;25175;50.140;18.990;2023-09-08T05:36:15;99236.00;;;14.91;69.02
39491;BME280;25175;50.140;18.990;2023-09-08T05:39:23;99235.38;;;14.95;69.20
39491;BME280;25175;50.140;18.990;2023-09-08T05:42:28;99218.75;;;14.88;69.63
39491;BME280;25175;50.140;18.990;2023-09-08T05:45:33;99239.69;;;15.08;69.63
39491;BME280;25175;50.140;18.990;2023-09-08T05:48:39;99243.31;;;15.13;69.88
39491;BME280;25175;50.140;18.990;2023-09-08T05:51:57;99249.56;;;15.18;69.90
39491;BME280;25175;50.140;18.990;2023-09-08T05:55:07;99237.09;;;15.26;70.12
39491;BME280;25175;50.140;18.990;2023-09-08T05:58:12;99242.06;;;15.33;70.08
39491;BME280;25175;50.140;18.990;2023-09-08T06:01:20;99248.09;;;15.40;69.96
39491;BME280;25175;50.140;18.990;2023-09-08T06:04:33;99249.84;;;15.46;70.24
39491;BME280;25175;50.140;18.990;2023-09-08T06:07:39;99244.28;;;15.54;70.07
39491;BME280;25175;50.140;18.990;2023-09-08T06:10:48;99241.56;;;15.61;69.72
39491;BME280;25175;50.140;18.990;2023-09-08T06:14:24;99238.66;;;15.69;69.95
39491;BME280;25175;50.140;18.990;2023-09-08T06:17:30;99243.06;;;15.75;69.73
39491;BME280;25175;50.140;18.990;2023-09-08T06:20:35;99242.38;;;15.79;69.57
39491;BME280;25175;50.140;18.990;2023-09-08T06:23:40;99237.22;;;15.84;69.39
39491;BME280;25175;50.140;18.990;2023-09-08T06:26:49;99241.63;;;15.90;69.31
39491;BME280;25175;50.140;18.990;2023-09-08T06:29:55;99233.38;;;15.98;69.27
39491;BME280;25175;50.140;18.990;2023-09-08T06:33:39;99235.69;;;16.06;69.02
39491;BME280;25175;50.140;18.990;2023-09-08T06:36:45;99247.81;;;16.14;68.97
39491;BME280;25175;50.140;18.990;2023-09-08T06:39:50;99246.47;;;16.23;68.80
39491;BME280;25175;50.140;18.990;2023-09-08T06:42:58;99245.09;;;16.32;69.06
39491;BME280;25175;50.140;18.990;2023-09-08T06:46:34;99238.81;;;16.44;68.62
39491;BME280;25175;50.140;18.990;2023-09-08T06:49:39;99240.94;;;16.54;68.15
39491;BME280;25175;50.140;18.990;2023-09-08T06:52:44;99240.63;;;16.62;68.31
39491;BME280;25175;50.140;18.990;2023-09-08T06:55:51;99239.25;;;16.71;68.43
39491;BME280;25175;50.140;18.990;2023-09-08T06:58:58;99237.66;;;16.81;68.36
39491;BME280;25175;50.140;18.990;2023-09-08T07:05:43;99241.13;;;17.05;67.86
39491;BME280;25175;50.140;18.990;2023-09-08T07:08:49;99245.34;;;17.17;67.14
39491;BME280;25175;50.140;18.990;2023-09-08T07:11:55;99239.25;;;17.28;66.43
39491;BME280;25175;50.140;18.990;2023-09-08T07:15:04;99250.69;;;17.40;65.95
39491;BME280;25175;50.140;18.990;2023-09-08T07:18:10;99247.66;;;17.48;65.08
39491;BME280;25175;50.140;18.990;2023-09-08T07:21:16;99231.94;;;17.58;65.28
39491;BME280;25175;50.140;18.990;2023-09-08T07:24:21;99249.56;;;17.76;64.96
39491;BME280;25175;50.140;18.990;2023-09-08T07:27:58;99249.53;;;17.87;64.43
39491;BME280;25175;50.140;18.990;2023-09-08T07:31:06;99213.84;;;17.83;64.37
39491;BME280;25175;50.140;18.990;2023-09-08T07:34:14;99245.19;;;18.09;64.40
39491;BME280;25175;50.140;18.990;2023-09-08T07:37:19;99236.28;;;18.15;63.92
39491;BME280;25175;50.140;18.990;2023-09-08T07:40:25;99248.31;;;18.34;63.35
39491;BME280;25175;50.140;18.990;2023-09-08T07:43:30;99236.81;;;18.45;62.54
39491;BME280;25175;50.140;18.990;2023-09-08T07:46:38;99238.38;;;18.58;62.26
39491;BME280;25175;50.140;18.990;2023-09-08T07:49:46;99241.97;;;18.68;62.00
39491;BME280;25175;50.140;18.990;2023-09-08T07:53:04;99237.66;;;18.79;61.98
39491;BME280;25175;50.140;18.990;2023-09-08T07:56:08;99220.91;;;18.78;62.00
39491;BME280;25175;50.140;18.990;2023-09-08T07:59:13;99255.38;;;19.06;61.38
39491;BME280;25175;50.140;18.990;2023-09-08T08:02:53;99242.78;;;19.18;60.49
39491;BME280;25175;50.140;18.990;2023-09-08T08:05:59;99236.06;;;19.32;60.60
39491;BME280;25175;50.140;18.990;2023-09-08T08:09:03;99226.03;;;19.39;60.07
39491;BME280;25175;50.140;18.990;2023-09-08T08:12:09;99231.91;;;19.58;59.86
39491;BME280;25175;50.140;18.990;2023-09-08T08:15:14;99231.75;;;19.69;59.33
39491;BME280;25175;50.140;18.990;2023-09-08T08:18:22;99222.81;;;19.80;58.95
39491;BME280;25175;50.140;18.990;2023-09-08T08:21:57;99230.75;;;19.97;58.91
39491;BME280;25175;50.140;18.990;2023-09-08T08:25:03;99227.97;;;20.13;59.79
39491;BME280;25175;50.140;18.990;2023-09-08T08:28:09;99226.84;;;20.31;58.10
39491;BME280;25175;50.140;18.990;2023-09-08T08:31:14;99212.31;;;20.43;58.15
39491;BME280;25175;50.140;18.990;2023-09-08T08:34:21;99227.09;;;20.61;57.62
39491;BME280;25175;50.140;18.990;2023-09-08T08:37:27;99215.75;;;20.70;57.14
39491;BME280;25175;50.140;18.990;2023-09-08T08:40:31;99189.22;;;20.59;56.74
39491;BME280;25175;50.140;18.990;2023-09-08T08:43:37;99223.47;;;21.03;56.62
39491;BME280;25175;50.140;18.990;2023-09-08T08:46:43;99220.88;;;21.18;55.55
39491;BME280;25175;50.140;18.990;2023-09-08T08:50:45;99218.28;;;21.33;54.54
39491;BME280;25175;50.140;18.990;2023-09-08T08:54:28;98977.72;;;20.07;53.35
39491;BME280;25175;50.140;18.990;2023-09-08T08:57:36;99127.94;;;21.10;52.79
39491;BME280;25175;50.140;18.990;2023-09-08T09:00:42;99206.72;;;21.74;51.79
39491;BME280;25175;50.140;18.990;2023-09-08T09:03:50;99216.91;;;21.82;52.53
39491;BME280;25175;50.140;18.990;2023-09-08T09:06:59;99210.53;;;21.93;52.76
39491;BME280;25175;50.140;18.990;2023-09-08T09:10:07;99210.03;;;22.11;51.78
39491;BME280;25175;50.140;18.990;2023-09-08T09:13:45;99211.44;;;22.24;51.38
39491;BME280;25175;50.140;18.990;2023-09-08T09:16:50;99210.13;;;22.41;51.30
39491;BME280;25175;50.140;18.990;2023-09-08T09:20:29;99206.09;;;22.59;50.51
39491;BME280;25175;50.140;18.990;2023-09-08T09:24:00;99204.22;;;22.74;49.91
39491;BME280;25175;50.140;18.990;2023-09-08T09:27:05;99196.19;;;22.89;49.65
39491;BME280;25175;50.140;18.990;2023-09-08T09:30:11;99195.91;;;23.01;48.27
39491;BME280;25175;50.140;18.990;2023-09-08T09:33:16;99193.44;;;23.19;48.54
39491;BME280;25175;50.140;18.990;2023-09-08T09:36:23;99200.09;;;23.32;46.44
39491;BME280;25175;50.140;18.990;2023-09-08T09:39:31;99194.44;;;23.43;46.34
39491;BME280;25175;50.140;18.990;2023-09-08T09:42:38;99187.19;;;23.54;45.33
39491;BME280;25175;50.140;18.990;2023-09-08T09:45:44;99186.59;;;23.67;46.29
39491;BME280;25175;50.140;18.990;2023-09-08T09:49:09;99187.28;;;23.82;45.90
39491;BME280;25175;50.140;18.990;2023-09-08T09:52:22;99170.91;;;23.89;44.33
39491;BME280;25175;50.140;18.990;2023-09-08T09:55:32;99182.94;;;24.01;44.83
39491;BME280;25175;50.140;18.990;2023-09-08T09:58:41;99180.44;;;24.15;44.53
39491;BME280;25175;50.140;18.990;2023-09-08T10:01:48;99172.88;;;24.22;44.09
39491;BME280;25175;50.140;18.990;2023-09-08T10:05:24;99177.88;;;24.33;42.80
39491;BME280;25175;50.140;18.990;2023-09-08T10:08:31;99170.25;;;24.45;41.90
39491;BME280;25175;50.140;18.990;2023-09-08T10:11:42;99166.94;;;24.58;43.08
39491;BME280;25175;50.140;18.990;2023-09-08T10:14:55;99155.91;;;24.65;41.17
39491;BME280;25175;50.140;18.990;2023-09-08T10:18:04;99169.97;;;24.80;41.52
39491;BME280;25175;50.140;18.990;2023-09-08T10:21:27;99172.50;;;24.95;41.95
39491;BME280;25175;50.140;18.990;2023-09-08T10:24:35;99172.91;;;25.07;40.05
39491;BME280;25175;50.140;18.990;2023-09-08T10:27:45;99174.41;;;25.18;40.85
39491;BME280;25175;50.140;18.990;2023-09-08T10:30:52;99174.81;;;25.30;40.58
39491;BME280;25175;50.140;18.990;2023-09-08T10:33:58;99164.50;;;25.37;39.62
39491;BME280;25175;50.140;18.990;2023-09-08T10:37:34;99158.44;;;25.50;39.81
39491;BME280;25175;50.140;18.990;2023-09-08T10:40:43;99157.94;;;25.67;39.51
39491;BME280;25175;50.140;18.990;2023-09-08T10:43:55;99160.81;;;25.75;38.63
39491;BME280;25175;50.140;18.990;2023-09-08T10:47:02;99156.94;;;25.81;38.07
39491;BME280;25175;50.140;18.990;2023-09-08T10:50:39;99150.44;;;25.87;38.83
39491;BME280;25175;50.140;18.990;2023-09-08T10:53:49;99157.97;;;26.04;38.37
39491;BME280;25175;50.140;18.990;2023-09-08T10:56:55;99154.84;;;26.15;37.08
39491;BME280;25175;50.140;18.990;2023-09-08T11:00:04;99154.97;;;26.24;38.20
39491;BME280;25175;50.140;18.990;2023-09-08T11:03:46;99146.34;;;26.27;37.85
39491;BME280;25175;50.140;18.990;2023-09-08T11:06:56;99148.53;;;26.25;37.79
39491;BME280;25175;50.140;18.990;2023-09-08T11:10:07;99146.25;;;26.32;38.45
39491;BME280;25175;50.140;18.990;2023-09-08T11:13:45;99142.00;;;26.44;38.48
39491;BME280;25175;50.140;18.990;2023-09-08T11:16:49;99143.81;;;26.49;38.09
39491;BME280;25175;50.140;18.990;2023-09-08T11:19:55;99127.84;;;26.52;37.84
39491;BME280;25175;50.140;18.990;2023-09-08T11:23:00;99137.56;;;26.67;36.70
39491;BME280;25175;50.140;18.990;2023-09-08T11:26:12;99133.09;;;26.76;36.16
39491;BME280;25175;50.140;18.990;2023-09-08T11:29:38;99138.72;;;26.79;35.65
39491;BME280;25175;50.140;18.990;2023-09-08T11:32:50;99123.06;;;26.81;35.69
39491;BME280;25175;50.140;18.990;2023-09-08T11:35:55;99129.00;;;26.78;35.59
39491;BME280;25175;50.140;18.990;2023-09-08T11:39:00;99120.00;;;26.69;36.08
39491;BME280;25175;50.140;18.990;2023-09-08T11:42:11;99123.13;;;26.76;35.89
39491;BME280;25175;50.140;18.990;2023-09-08T11:45:19;99127.75;;;26.89;34.35
39491;BME280;25175;50.140;18.990;2023-09-08T11:48:32;99131.44;;;26.93;34.80
39491;BME280;25175;50.140;18.990;2023-09-08T11:51:56;99130.44;;;27.03;35.33
39491;BME280;25175;50.140;18.990;2023-09-08T11:55:01;99118.47;;;27.09;34.17
39491;BME280;25175;50.140;18.990;2023-09-08T11:58:09;99111.47;;;27.08;35.06
39491;BME280;25175;50.140;18.990;2023-09-08T12:01:13;99113.16;;;27.17;35.11
39491;BME280;25175;50.140;18.990;2023-09-08T12:04:20;99112.16;;;27.27;35.90
39491;BME280;25175;50.140;18.990;2023-09-08T12:07:53;99109.34;;;27.32;36.41
39491;BME280;25175;50.140;18.990;2023-09-08T12:11:00;99100.91;;;27.38;35.83
39491;BME280;25175;50.140;18.990;2023-09-08T12:14:11;99100.28;;;27.41;36.56
39491;BME280;25175;50.140;18.990;2023-09-08T12:17:17;99094.59;;;27.43;36.55
39491;BME280;25175;50.140;18.990;2023-09-08T12:21:11;99096.41;;;27.47;36.08
39491;BME280;25175;50.140;18.990;2023-09-08T12:24:16;99079.13;;;27.48;36.22
39491;BME280;25175;50.140;18.990;2023-09-08T12:27:21;99094.38;;;27.53;35.65
39491;BME280;25175;50.140;18.990;2023-09-08T12:31:08;99089.16;;;27.56;36.91
39491;BME280;25175;50.140;18.990;2023-09-08T12:34:03;99082.53;;;27.62;35.39
39491;BME280;25175;50.140;18.990;2023-09-08T12:37:11;99071.63;;;27.45;34.86
39491;BME280;25175;50.140;18.990;2023-09-08T12:40:15;99081.25;;;27.60;34.99
39491;BME280;25175;50.140;18.990;2023-09-08T12:43:21;99083.84;;;27.65;35.27
39491;BME280;25175;50.140;18.990;2023-09-08T12:46:28;99075.16;;;27.68;35.51
39491;BME280;25175;50.140;18.990;2023-09-08T12:49:34;98864.22;;;26.42;35.68
39491;BME280;25175;50.140;18.990;2023-09-08T12:56:37;99074.13;;;27.77;34.34
39491;BME280;25175;50.140;18.990;2023-09-08T12:59:41;99074.28;;;27.81;35.69
39491;BME280;25175;50.140;18.990;2023-09-08T13:02:50;99070.97;;;27.62;34.63
39491;BME280;25175;50.140;18.990;2023-09-08T13:05:55;99071.91;;;27.44;34.69
39491;BME280;25175;50.140;18.990;2023-09-08T13:09:34;99062.56;;;27.28;36.32
39491;BME280;25175;50.140;18.990;2023-09-08T13:12:39;99062.75;;;27.31;35.76
39491;BME280;25175;50.140;18.990;2023-09-08T13:15:46;99055.44;;;27.32;35.54
39491;BME280;25175;50.140;18.990;2023-09-08T13:18:53;99046.50;;;27.36;35.73
39491;BME280;25175;50.140;18.990;2023-09-08T13:21:58;99046.75;;;27.48;35.13
39491;BME280;25175;50.140;18.990;2023-09-08T13:25:35;99048.13;;;27.59;34.89
39491;BME280;25175;50.140;18.990;2023-09-08T13:28:41;99049.28;;;27.67;35.23
39491;BME280;25175;50.140;18.990;2023-09-08T13:31:46;99058.34;;;27.71;34.38
39491;BME280;25175;50.140;18.990;2023-09-08T13:34:54;99057.69;;;27.65;32.73
39491;BME280;25175;50.140;18.990;2023-09-08T13:37:59;99047.72;;;27.52;32.42
39491;BME280;25175;50.140;18.990;2023-09-08T13:41:04;99038.16;;;27.46;33.55
39491;BME280;25175;50.140;18.990;2023-09-08T13:44:09;99055.94;;;27.47;34.57
39491;BME280;25175;50.140;18.990;2023-09-08T13:47:44;99041.66;;;27.47;34.21
39491;BME280;25175;50.140;18.990;2023-09-08T13:50:51;99037.97;;;27.43;33.99
39491;BME280;25175;50.140;18.990;2023-09-08T13:53:56;99037.66;;;27.44;33.96
39491;BME280;25175;50.140;18.990;2023-09-08T13:57:02;99034.97;;;27.44;34.47
39491;BME280;25175;50.140;18.990;2023-09-08T14:00:09;99031.28;;;27.40;33.65
39491;BME280;25175;50.140;18.990;2023-09-08T14:03:16;99039.47;;;27.35;34.19
39491;BME280;25175;50.140;18.990;2023-09-08T14:07:00;99025.53;;;27.33;33.88
39491;BME280;25175;50.140;18.990;2023-09-08T14:10:06;99024.13;;;27.22;34.42
39491;BME280;25175;50.140;18.990;2023-09-08T14:13:11;99020.63;;;27.22;34.17
39491;BME280;25175;50.140;18.990;2023-09-08T14:16:17;99015.84;;;27.19;34.49
39491;BME280;25175;50.140;18.990;2023-09-08T14:19:45;99013.53;;;27.26;34.49
39491;BME280;25175;50.140;18.990;2023-09-08T14:23:00;99009.53;;;27.23;33.83
39491;BME280;25175;50.140;18.990;2023-09-08T14:26:06;99003.66;;;27.21;34.54
39491;BME280;25175;50.140;18.990;2023-09-08T14:29:11;99006.38;;;27.21;34.22
39491;BME280;25175;50.140;18.990;2023-09-08T14:32:16;99013.94;;;27.19;33.42
39491;BME280;25175;50.140;18.990;2023-09-08T14:35:20;99013.44;;;27.17;33.52
39491;BME280;25175;50.140;18.990;2023-09-08T14:38:49;99017.75;;;27.18;34.29
39491;BME280;25175;50.140;18.990;2023-09-08T14:41:53;99003.97;;;27.20;34.44
39491;BME280;25175;50.140;18.990;2023-09-08T14:45:25;99004.78;;;27.20;33.72
39491;BME280;25175;50.140;18.990;2023-09-08T14:48:29;98996.38;;;27.22;33.77
39491;BME280;25175;50.140;18.990;2023-09-08T14:51:35;98997.75;;;27.19;33.16
39491;BME280;25175;50.140;18.990;2023-09-08T14:54:42;99002.19;;;27.15;33.31
39491;BME280;25175;50.140;18.990;2023-09-08T14:57:47;98995.41;;;27.18;33.73
39491;BME280;25175;50.140;18.990;2023-09-08T15:00:52;98990.31;;;27.16;33.58
39491;BME280;25175;50.140;18.990;2023-09-08T15:03:57;98986.03;;;27.15;34.27
39491;BME280;25175;50.140;18.990;2023-09-08T15:07:31;98992.00;;;27.12;33.95
39491;BME280;25175;50.140;18.990;2023-09-08T15:10:39;98958.63;;;26.86;34.29
39491;BME280;25175;50.140;18.990;2023-09-08T15:13:43;98999.09;;;27.08;34.79
39491;BME280;25175;50.140;18.990;2023-09-08T15:16:49;98988.44;;;27.03;34.86
39491;BME280;25175;50.140;18.990;2023-09-08T15:19:54;98987.94;;;27.01;35.14
39491;BME280;25175;50.140;18.990;2023-09-08T15:23:01;98989.34;;;26.99;35.79
39491;BME280;25175;50.140;18.990;2023-09-08T15:26:35;98984.25;;;26.97;35.53
39491;BME280;25175;50.140;18.990;2023-09-08T15:29:41;98989.16;;;26.95;35.54
39491;BME280;25175;50.140;18.990;2023-09-08T15:32:45;98985.28;;;26.88;35.59
39491;BME280;25175;50.140;18.990;2023-09-08T15:35:51;98986.78;;;26.80;36.04
39491;BME280;25175;50.140;18.990;2023-09-08T15:38:57;98990.97;;;26.73;36.61
39491;BME280;25175;50.140;18.990;2023-09-08T15:42:05;98984.88;;;26.67;35.71
39491;BME280;25175;50.140;18.990;2023-09-08T15:45:09;98982.09;;;26.59;36.32
39491;BME280;25175;50.140;18.990;2023-09-08T15:48:45;98970.03;;;26.56;36.53
39491;BME280;25175;50.140;18.990;2023-09-08T15:51:50;98958.66;;;26.46;36.30
39491;BME280;25175;50.140;18.990;2023-09-08T15:54:56;98967.22;;;26.48;35.89
39491;BME280;25175;50.140;18.990;2023-09-08T15:58:04;98965.75;;;26.42;36.32
39491;BME280;25175;50.140;18.990;2023-09-08T16:01:09;98972.50;;;26.39;36.89
39491;BME280;25175;50.140;18.990;2023-09-08T16:04:14;98968.53;;;26.37;36.81
39491;BME280;25175;50.140;18.990;2023-09-08T16:07:18;98965.66;;;26.33;37.35
39491;BME280;25175;50.140;18.990;2023-09-08T16:15:13;98958.75;;;26.27;38.51
39491;BME280;25175;50.140;18.990;2023-09-08T16:18:19;98956.38;;;26.26;39.28
39491;BME280;25175;50.140;18.990;2023-09-08T16:21:23;98968.00;;;26.21;38.64
39491;BME280;25175;50.140;18.990;2023-09-08T16:24:29;98949.47;;;26.20;39.76
39491;BME280;25175;50.140;18.990;2023-09-08T16:27:33;98940.09;;;26.17;40.26
39491;BME280;25175;50.140;18.990;2023-09-08T16:30:41;98951.94;;;26.16;40.52
39491;BME280;25175;50.140;18.990;2023-09-08T16:33:46;98957.63;;;26.15;40.02
39491;BME280;25175;50.140;18.990;2023-09-08T16:36:54;98963.28;;;26.13;40.78
39491;BME280;25175;50.140;18.990;2023-09-08T16:46:28;98957.50;;;26.06;41.01
39491;BME280;25175;50.140;18.990;2023-09-08T16:50:36;98946.34;;;25.99;41.71
39491;BME280;25175;50.140;18.990;2023-09-08T16:55:00;98942.75;;;25.90;41.57
39491;BME280;25175;50.140;18.990;2023-09-08T16:58:17;98892.34;;;25.50;41.57